Time;durP1;ratioP1;P1;durP2;ratioP2;P2;SDS_P1;SDS_P2;PMS_P1;PMS_P2;Temp;Humidity;BMP_temperature;BMP_pressure;BME280_temperature;BME280_humidity;BME280_pressure;Samples;Min_cycle;Max_cycle;Signal;HPM_P1;HPM_P2
2022/06/18 00:01:33;;;;;;;4.85;1.92;;;21.00;95.20;;;;;;5054726;28;20028;-87
2022/06/18 00:03:59;;;;;;;2.08;1.40;;;20.90;95.80;;;;;;5036867;28;20400;-86
2022/06/18 00:06:26;;;;;;;5.57;1.80;;;20.90;96.30;;;;;;5036602;28;20074;-87
2022/06/18 00:08:51;;;;;;;3.25;1.55;;;20.80;96.60;;;;;;5036466;28;20033;-87
2022/06/18 00:14:01;;;;;;;4.50;1.63;;;20.70;97.10;;;;;;5054657;28;20089;-87
2022/06/18 00:16:29;;;;;;;5.25;1.55;;;20.60;97.30;;;;;;5036425;28;20025;-88
2022/06/18 00:18:55;;;;;;;4.53;1.48;;;20.60;97.50;;;;;;5036487;28;20067;-87
2022/06/18 00:21:23;;;;;;;4.13;1.58;;;20.60;97.90;;;;;;5036332;28;20048;-87
2022/06/18 00:23:49;;;;;;;5.85;1.60;;;20.60;98.00;;;;;;5019515;28;20025;-87
2022/06/18 00:26:15;;;;;;;3.92;1.40;;;20.60;98.10;;;;;;5034491;28;20032;-87
2022/06/18 00:28:40;;;;;;;4.57;1.20;;;20.60;98.20;;;;;;5016342;28;20041;-87
2022/06/18 00:31:06;;;;;;;5.57;1.25;;;20.60;98.20;;;;;;5033631;28;20030;-87
2022/06/18 00:33:35;;;;;;;3.38;1.35;;;20.50;98.20;;;;;;5034040;28;20160;-88
2022/06/18 00:36:03;;;;;;;3.88;1.10;;;20.60;98.30;;;;;;5016482;28;20421;-87
2022/06/18 00:38:32;;;;;;;3.83;1.40;;;20.50;98.50;;;;;;5033923;28;20033;-87
2022/06/18 00:40:58;;;;;;;3.78;1.73;;;20.50;98.70;;;;;;5016120;28;20560;-88
2022/06/18 00:43:29;;;;;;;2.55;1.63;;;20.50;98.90;;;;;;5033283;28;20022;-87
2022/06/18 00:46:00;;;;;;;5.00;1.38;;;20.40;99.00;;;;;;5016418;28;20104;-87
2022/06/18 00:48:34;;;;;;;7.35;2.20;;;20.30;99.20;;;;;;5016428;28;20029;-87
2022/06/18 00:51:09;;;;;;;3.50;1.52;;;20.30;99.40;;;;;;5016239;28;20029;-87
2022/06/18 00:53:42;;;;;;;4.47;2.03;;;20.30;99.60;;;;;;5033849;28;20496;-87
2022/06/18 00:56:45;;;;;;;5.85;1.90;;;20.20;99.80;;;;;;5033749;28;20018;-87
2022/06/18 00:59:27;;;;;;;3.92;2.10;;;20.20;99.90;;;;;;5013093;28;20512;-87
2022/06/18 01:01:54;;;;;;;3.45;1.77;;;20.10;99.90;;;;;;5016306;28;20465;-87
2022/06/18 01:04:27;;;;;;;3.45;1.92;;;20.10;99.90;;;;;;5016136;28;20501;-87
2022/06/18 01:07:00;;;;;;;4.30;1.70;;;20.10;99.90;;;;;;5033823;28;20048;-87
2022/06/18 01:09:26;;;;;;;4.68;1.95;;;20.10;99.90;;;;;;5033594;28;20065;-87
2022/06/18 01:11:52;;;;;;;4.43;1.90;;;20.10;99.90;;;;;;5033688;28;20029;-88
2022/06/18 01:14:18;;;;;;;4.05;1.80;;;20.10;99.90;;;;;;5032592;28;20030;-87
2022/06/18 01:16:44;;;;;;;5.28;2.00;;;20.10;99.90;;;;;;5016024;28;20030;-87
2022/06/18 01:19:28;;;;;;;3.30;2.00;;;20.10;99.90;;;;;;5016135;28;20078;-87
2022/06/18 01:22:27;;;;;;;3.67;2.33;;;20.10;99.90;;;;;;5032303;28;20029;-87
2022/06/18 01:24:55;;;;;;;3.15;1.95;;;20.10;99.90;;;;;;5032502;28;20030;-87
2022/06/18 01:27:21;;;;;;;7.85;3.42;;;20.10;99.90;;;;;;5032463;28;20021;-87
2022/06/18 01:29:47;;;;;;;4.15;2.50;;;20.10;99.90;;;;;;5032442;28;20038;-87
2022/06/18 01:32:15;;;;;;;6.10;2.53;;;20.00;99.90;;;;;;5032268;28;20030;-87
2022/06/18 01:34:41;;;;;;;5.60;2.28;;;20.00;99.90;;;;;;5032238;28;20073;-87
2022/06/18 01:37:08;;;;;;;7.68;2.42;;;20.00;99.90;;;;;;5032445;28;20021;-87
2022/06/18 01:39:36;;;;;;;3.78;2.35;;;20.00;99.90;;;;;;5032356;28;20156;-87
2022/06/18 01:42:25;;;;;;;4.07;2.45;;;19.90;99.90;;;;;;5015422;28;20530;-87
2022/06/18 01:44:58;;;;;;;9.65;3.80;;;20.00;99.90;;;;;;5015505;28;20041;-87
2022/06/18 01:47:38;;;;;;;5.63;2.25;;;20.00;99.90;;;;;;5032391;28;20048;-87
2022/06/18 01:50:04;;;;;;;6.47;3.47;;;19.90;99.90;;;;;;5032424;28;20105;-87
2022/06/18 01:52:35;;;;;;;4.32;2.22;;;20.00;99.90;;;;;;5032087;28;20057;-87
2022/06/18 01:55:08;;;;;;;5.50;2.85;;;19.90;99.90;;;;;;5034182;28;20025;-87
2022/06/18 01:57:38;;;;;;;8.38;3.33;;;20.00;99.90;;;;;;5035995;28;20029;-87
2022/06/18 02:00:12;;;;;;;6.47;2.65;;;20.00;99.90;;;;;;5035611;28;20141;-87
2022/06/18 02:02:38;;;;;;;5.65;2.90;;;20.00;99.90;;;;;;5036971;28;20021;-87
2022/06/18 02:05:05;;;;;;;5.07;3.13;;;20.00;99.90;;;;;;5018879;28;20022;-87
2022/06/18 02:07:32;;;;;;;7.07;3.17;;;20.00;99.90;;;;;;5035752;28;20025;-87
2022/06/18 02:10:15;;;;;;;6.88;3.10;;;20.00;99.90;;;;;;5035635;28;20068;-87
2022/06/18 02:12:41;;;;;;;7.00;3.08;;;19.90;99.90;;;;;;5035620;28;20417;-87
2022/06/18 02:15:13;;;;;;;4.80;3.33;;;19.90;99.90;;;;;;5035452;28;20025;-87
2022/06/18 02:17:40;;;;;;;5.00;3.05;;;19.90;99.90;;;;;;5035743;28;20034;-87
2022/06/18 02:20:27;;;;;;;4.95;3.65;;;19.80;99.90;;;;;;5030957;28;20022;-87
2022/06/18 02:22:55;;;;;;;5.50;3.55;;;19.80;99.90;;;;;;5019072;28;20090;-87
2022/06/18 02:25:24;;;;;;;5.55;3.72;;;19.70;99.90;;;;;;5018665;28;20025;-87
2022/06/18 02:27:56;;;;;;;7.30;3.63;;;19.70;99.90;;;;;;5018855;28;20024;-87
2022/06/18 02:30:24;;;;;;;6.38;4.10;;;19.70;99.90;;;;;;5018833;28;20025;-87
2022/06/18 02:32:59;;;;;;;7.00;3.95;;;19.70;99.90;;;;;;5018618;28;20029;-87
2022/06/18 02:35:28;;;;;;;10.02;3.80;;;19.60;99.90;;;;;;5018411;28;20463;-87
2022/06/18 02:37:56;;;;;;;5.05;3.97;;;19.70;99.90;;;;;;5018740;28;20125;-87
2022/06/18 02:40:26;;;;;;;6.20;3.58;;;19.70;99.90;;;;;;5035164;28;20029;-87
2022/06/18 02:42:59;;;;;;;7.47;4.68;;;19.70;99.90;;;;;;5018446;28;20056;-87
2022/06/18 02:45:26;;;;;;;6.85;4.57;;;19.70;99.90;;;;;;5018491;28;20033;-87
2022/06/18 02:47:55;;;;;;;5.97;4.28;;;19.70;99.90;;;;;;5035848;28;20108;-87
2022/06/18 02:50:23;;;;;;;5.88;4.32;;;19.80;99.90;;;;;;5035898;28;20036;-87
2022/06/18 02:52:54;;;;;;;8.27;4.55;;;19.80;99.90;;;;;;5018188;28;20022;-87
2022/06/18 02:55:28;;;;;;;6.70;3.97;;;19.80;99.90;;;;;;5035717;28;20048;-87
2022/06/18 02:58:00;;;;;;;7.30;4.35;;;19.80;99.90;;;;;;5018288;28;20120;-87
2022/06/18 03:00:26;;;;;;;;;;;19.80;99.90;;;;;;5018661;28;20026;-87
2022/06/18 03:02:51;;;;;;;9.27;4.47;;;19.80;99.90;;;;;;5035926;28;19909;-87
2022/06/18 03:05:24;;;;;;;7.75;4.88;;;19.70;99.90;;;;;;5017950;28;20030;-88
2022/06/18 03:07:50;;;;;;;8.07;4.30;;;19.70;99.90;;;;;;5017526;28;20018;-87
2022/06/18 03:13:02;;;;;;;7.07;5.55;;;19.70;99.90;;;;;;5035891;28;20556;-87
2022/06/18 03:15:30;;;;;;;7.72;5.50;;;19.70;99.90;;;;;;5017670;28;20025;-87
2022/06/18 03:17:56;;;;;;;9.68;5.20;;;19.70;99.90;;;;;;5017621;28;20089;-87
2022/06/18 03:20:34;;;;;;;8.93;5.65;;;19.60;99.90;;;;;;5035263;28;20513;-87
2022/06/18 03:23:01;;;;;;;10.45;5.68;;;19.70;99.90;;;;;;5017593;28;20026;-86
2022/06/18 03:25:26;;;;;;;8.93;5.15;;;19.60;99.90;;;;;;5035319;28;20041;-87
2022/06/18 03:27:52;;;;;;;10.50;5.07;;;19.60;99.90;;;;;;5017545;28;20025;-87
2022/06/18 03:30:18;;;;;;;6.70;5.35;;;19.50;99.90;;;;;;5017723;28;20031;-87
2022/06/18 03:32:43;;;;;;;10.48;5.32;;;19.60;99.90;;;;;;5017425;28;20053;-87
2022/06/18 03:35:09;;;;;;;9.20;5.40;;;19.50;99.90;;;;;;5017504;28;20547;-87
2022/06/18 03:37:34;;;;;;;12.60;5.78;;;19.50;99.90;;;;;;5017454;28;20060;-86
2022/06/18 03:40:00;;;;;;;8.15;5.03;;;19.50;99.90;;;;;;5017325;28;20025;-86
2022/06/18 03:42:25;;;;;;;9.00;5.28;;;19.50;99.90;;;;;;5017346;28;20436;-86
2022/06/18 03:44:51;;;;;;;10.75;5.43;;;19.40;99.90;;;;;;5034912;28;20068;-87
2022/06/18 03:47:17;;;;;;;11.50;5.55;;;19.50;99.90;;;;;;5017264;28;20127;-87
2022/06/18 03:49:42;;;;;;;10.13;5.80;;;19.40;99.90;;;;;;5033652;28;20025;-87
2022/06/18 03:52:09;;;;;;;9.55;5.70;;;19.40;99.90;;;;;;5017289;28;20067;-87
2022/06/18 03:54:35;;;;;;;7.57;5.05;;;19.40;99.90;;;;;;5017136;28;20021;-86
2022/06/18 03:57:00;;;;;;;7.78;6.03;;;19.40;99.90;;;;;;5033480;28;20018;-87
2022/06/18 03:59:26;;;;;;;11.55;5.32;;;19.40;99.90;;;;;;5017244;28;20026;-87
2022/06/18 04:01:51;;;;;;;7.90;5.35;;;19.40;99.90;;;;;;5017096;28;20034;-87
2022/06/18 04:04:17;;;;;;;9.55;5.20;;;19.40;99.90;;;;;;5016769;28;20032;-87
2022/06/18 04:06:43;;;;;;;11.95;6.00;;;19.40;99.90;;;;;;5016883;28;20034;-87
2022/06/18 04:09:11;;;;;;;8.82;5.05;;;19.50;99.90;;;;;;5016776;28;20040;-87
2022/06/18 04:11:37;;;;;;;11.27;5.60;;;19.50;99.90;;;;;;5017032;28;20388;-87
2022/06/18 04:14:04;;;;;;;9.23;5.55;;;19.50;99.90;;;;;;5016887;28;20060;-87
2022/06/18 04:16:30;;;;;;;7.70;6.25;;;19.60;99.90;;;;;;5017554;28;20068;-86
2022/06/18 04:18:55;;;;;;;9.93;6.28;;;19.60;99.90;;;;;;5035548;28;20029;-87
2022/06/18 04:21:21;;;;;;;9.48;6.35;;;19.70;99.90;;;;;;5036450;28;20017;-87
2022/06/18 04:23:47;;;;;;;7.03;5.72;;;19.70;99.90;;;;;;5036303;28;20060;-87
2022/06/18 04:26:13;;;;;;;9.68;5.63;;;19.80;99.90;;;;;;5036365;28;20055;-87
2022/06/18 04:28:39;;;;;;;10.55;6.47;;;19.80;99.90;;;;;;5036274;28;20036;-87
2022/06/18 04:31:05;;;;;;;8.40;6.15;;;19.90;99.90;;;;;;5036351;28;20025;-87
2022/06/18 04:33:31;;;;;;;9.73;6.72;;;19.90;99.90;;;;;;5036126;28;20048;-87
2022/06/18 04:35:58;;;;;;;9.48;6.30;;;19.90;99.90;;;;;;5035869;28;20059;-87
2022/06/18 04:38:24;;;;;;;9.88;6.35;;;20.00;99.90;;;;;;5036947;28;20025;-87
2022/06/18 04:40:51;;;;;;;11.25;6.18;;;20.00;99.90;;;;;;5053848;28;20017;-87
2022/06/18 04:43:17;;;;;;;8.32;6.13;;;20.10;99.90;;;;;;5036172;28;20033;-87
2022/06/18 04:45:43;;;;;;;10.30;6.55;;;20.10;99.90;;;;;;5053703;28;20032;-87
2022/06/18 04:48:08;;;;;;;10.98;7.00;;;20.20;99.90;;;;;;5035753;28;20017;-87
2022/06/18 04:50:38;;;;;;;9.50;6.35;;;20.30;99.90;;;;;;5054219;28;20044;-86
2022/06/18 04:53:05;;;;;;;12.13;6.07;;;20.40;99.90;;;;;;5053511;28;20064;-87
2022/06/18 04:55:31;;;;;;;6.72;5.65;;;20.50;99.90;;;;;;5036020;28;20029;-87
2022/06/18 04:57:58;;;;;;;9.90;6.40;;;20.70;99.90;;;;;;5035761;28;20025;-87
2022/06/18 05:00:23;;;;;;;10.57;6.25;;;20.90;99.90;;;;;;5036013;28;20028;-87
2022/06/18 05:02:49;;;;;;;8.10;5.93;;;21.10;99.90;;;;;;5035635;28;20394;-87
2022/06/18 05:05:21;;;;;;;7.97;5.15;;;21.30;99.90;;;;;;5052357;28;20040;-86
2022/06/18 05:07:46;;;;;;;;;;;21.50;99.90;;;;;;5036102;28;20028;-87
2022/06/18 05:10:13;;;;;;;7.82;5.93;;;21.70;99.90;;;;;;5035576;28;20015;-86
2022/06/18 05:12:39;;;;;;;6.65;5.63;;;21.90;99.90;;;;;;5035863;28;20032;-87
2022/06/18 05:15:07;;;;;;;10.45;6.38;;;22.10;99.90;;;;;;5034971;28;20021;-87
2022/06/18 05:17:34;;;;;;;8.82;6.38;;;22.30;99.90;;;;;;5033416;28;20527;-86
2022/06/18 05:20:00;;;;;;;14.30;6.50;;;22.50;99.90;;;;;;5033720;28;20486;-87
2022/06/18 05:22:27;;;;;;;12.30;6.45;;;22.70;99.90;;;;;;5033639;28;20029;-87
2022/06/18 05:24:53;;;;;;;7.60;6.75;;;22.80;99.90;;;;;;5015965;28;20084;-87
2022/06/18 05:27:25;;;;;;;8.95;7.00;;;23.00;99.90;;;;;;5015545;28;20022;-87
2022/06/18 05:29:52;;;;;;;14.05;6.72;;;23.20;99.90;;;;;;5034544;28;20037;-87
2022/06/18 05:32:17;;;;;;;9.82;6.90;;;23.30;99.80;;;;;;5020787;28;20017;-87
2022/06/18 05:34:43;;;;;;;8.95;6.90;;;23.40;99.50;;;;;;5020135;28;20049;-87
2022/06/18 05:37:17;;;;;;;15.93;6.78;;;23.60;99.30;;;;;;5036178;28;20018;-87
2022/06/18 05:39:43;;;;;;;10.15;7.70;;;23.80;99.00;;;;;;5036076;28;20504;-87
2022/06/18 05:42:09;;;;;;;13.73;7.05;;;23.90;98.60;;;;;;5019679;28;20022;-87
2022/06/18 05:44:35;;;;;;;7.47;6.43;;;24.00;98.40;;;;;;5037239;28;20034;-87
2022/06/18 05:47:02;;;;;;;10.85;7.05;;;24.20;98.00;;;;;;5019381;28;20028;-87
2022/06/18 05:49:28;;;;;;;10.82;5.90;;;24.30;97.50;;;;;;5036866;28;20037;-86
2022/06/18 05:51:53;;;;;;;7.13;5.72;;;24.40;96.90;;;;;;5037024;28;20033;-86
2022/06/18 05:54:19;;;;;;;7.88;6.18;;;24.40;96.60;;;;;;5036015;28;20040;-86
2022/06/18 05:56:44;;;;;;;8.50;5.93;;;24.40;96.30;;;;;;5019576;28;20029;-87
2022/06/18 05:59:11;;;;;;;9.07;5.95;;;24.30;96.10;;;;;;5036727;28;20025;-87
2022/06/18 06:01:36;;;;;;;7.93;6.25;;;24.30;96.10;;;;;;5019131;28;20112;-86
2022/06/18 06:04:02;;;;;;;13.65;6.00;;;24.20;95.90;;;;;;5019239;28;20108;-87
2022/06/18 06:06:28;;;;;;;9.88;6.10;;;24.30;95.90;;;;;;5019212;28;20477;-86
2022/06/18 06:08:54;;;;;;;8.02;5.82;;;24.20;95.80;;;;;;5019071;28;20033;-86
2022/06/18 06:11:32;;;;;;;15.82;6.78;;;24.20;95.80;;;;;;5019099;28;20026;-87
2022/06/18 06:14:00;;;;;;;9.05;5.53;;;24.20;95.90;;;;;;5018939;28;20033;-86
2022/06/18 06:16:27;;;;;;;10.07;5.22;;;24.30;95.70;;;;;;5018930;28;20025;-87
2022/06/18 06:18:53;;;;;;;10.82;4.78;;;24.40;95.40;;;;;;5018988;28;20424;-87
2022/06/18 06:21:18;;;;;;;10.18;4.50;;;24.30;95.10;;;;;;5018476;28;20021;-87
2022/06/18 06:23:44;;;;;;;14.85;5.80;;;24.30;95.10;;;;;;5036389;28;20088;-86
2022/06/18 06:26:21;;;;;;;9.38;4.90;;;24.30;94.70;;;;;;5018799;28;20075;-86
2022/06/18 06:28:48;;;;;;;7.75;5.28;;;24.30;94.90;;;;;;5018992;28;20037;-87
2022/06/18 06:31:13;;;;;;;11.32;4.68;;;24.30;94.70;;;;;;5018646;28;20025;-86
2022/06/18 06:33:40;;;;;;;8.68;5.22;;;24.30;94.90;;;;;;5018698;28;20030;-86
2022/06/18 06:36:06;;;;;;;11.23;4.78;;;24.40;94.70;;;;;;5018438;28;20461;-86
2022/06/18 06:38:32;;;;;;;12.02;4.68;;;24.50;94.50;;;;;;5018543;28;20493;-87
2022/06/18 06:40:59;;;;;;;8.32;5.05;;;24.60;94.40;;;;;;5017635;28;20444;-87
2022/06/18 06:43:25;;;;;;;11.95;5.82;;;24.70;94.30;;;;;;5018465;28;20018;-87
2022/06/18 06:45:50;;;;;;;12.85;5.32;;;24.70;94.10;;;;;;5018670;28;20071;-87
2022/06/18 06:48:16;;;;;;;10.52;5.57;;;24.70;94.20;;;;;;5018433;28;20124;-87
2022/06/18 06:50:44;;;;;;;8.18;5.35;;;24.80;94.00;;;;;;5018757;28;20030;-86
2022/06/18 06:53:10;;;;;;;11.85;5.70;;;24.90;94.10;;;;;;5018240;28;20106;-86
2022/06/18 06:58:22;;;;;;;12.20;6.30;;;25.10;93.80;;;;;;5036201;28;20036;-86
2022/06/18 07:00:50;;;;;;;8.48;5.47;;;25.20;93.60;;;;;;5018241;28;20025;-86
2022/06/18 07:03:20;;;;;;;10.80;5.65;;;25.20;93.50;;;;;;5018055;28;20029;-87
2022/06/18 07:05:46;;;;;;;13.23;5.25;;;25.20;93.40;;;;;;5018047;28;20116;-87
2022/06/18 07:08:12;;;;;;;9.57;5.20;;;25.10;93.30;;;;;;5017682;28;20036;-87
2022/06/18 07:10:38;;;;;;;11.40;4.22;;;25.30;93.50;;;;;;5017806;28;20029;-87
2022/06/18 07:13:04;;;;;;;11.32;4.82;;;25.40;93.60;;;;;;5017662;28;20075;-86
2022/06/18 07:15:31;;;;;;;11.25;5.38;;;25.50;93.50;;;;;;5017830;28;20025;-86
2022/06/18 07:17:57;;;;;;;12.85;4.78;;;25.50;93.30;;;;;;5017862;28;20026;-87
2022/06/18 07:20:23;;;;;;;12.18;5.18;;;25.50;93.10;;;;;;5017979;28;20056;-87
2022/06/18 07:22:48;;;;;;;11.05;4.88;;;25.70;93.00;;;;;;5017599;28;20025;-87
2022/06/18 07:25:15;;;;;;;9.55;4.97;;;25.60;92.90;;;;;;5017807;28;20441;-87
2022/06/18 07:27:41;;;;;;;18.33;7.35;;;25.60;92.90;;;;;;5017686;28;20032;-87
2022/06/18 07:30:08;;;;;;;6.75;4.55;;;25.70;92.70;;;;;;5017614;28;20128;-86
2022/06/18 07:32:36;;;;;;;8.85;5.05;;;25.80;92.90;;;;;;5017378;28;20108;-87
2022/06/18 07:35:03;;;;;;;11.88;5.72;;;25.80;92.60;;;;;;5017251;28;20136;-87
2022/06/18 07:37:29;;;;;;;11.45;5.78;;;26.00;92.90;;;;;;5017226;28;20064;-87
2022/06/18 07:39:55;;;;;;;7.63;4.68;;;26.10;92.70;;;;;;5034907;28;20033;-87
2022/06/18 07:42:21;;;;;;;11.93;5.93;;;26.10;92.50;;;;;;5017297;28;20024;-87
2022/06/18 07:44:47;;;;;;;12.10;5.18;;;26.00;92.40;;;;;;5034647;28;20390;-87
2022/06/18 07:47:16;;;;;;;11.60;6.63;;;26.00;92.50;;;;;;5034674;28;20033;-87
2022/06/18 07:49:42;;;;;;;9.90;5.80;;;26.00;92.50;;;;;;5017255;28;20037;-87
2022/06/18 07:52:08;;;;;;;11.20;5.47;;;25.90;92.50;;;;;;5034451;28;20021;-86
2022/06/18 07:54:34;;;;;;;13.52;5.38;;;26.10;92.50;;;;;;5017077;28;20029;-87
2022/06/18 07:56:59;;;;;;;15.30;5.72;;;26.10;92.50;;;;;;5017165;28;20029;-87
2022/06/18 07:59:25;;;;;;;12.20;5.25;;;26.10;92.40;;;;;;5017242;28;20032;-87
2022/06/18 08:01:52;;;;;;;11.68;6.47;;;26.10;92.20;;;;;;5017212;28;20056;-87
2022/06/18 08:04:18;;;;;;;11.05;6.28;;;26.20;92.00;;;;;;5016859;28;20022;-87
2022/06/18 08:06:43;;;;;;;13.45;5.75;;;26.20;92.00;;;;;;5016714;28;20370;-87
2022/06/18 08:09:09;;;;;;;14.18;6.00;;;26.20;92.20;;;;;;5016676;28;20087;-87
2022/06/18 08:11:36;;;;;;;11.98;6.15;;;26.20;92.20;;;;;;5016931;28;20025;-87
2022/06/18 08:14:02;;;;;;;12.00;5.75;;;26.30;92.00;;;;;;5016827;28;20028;-87
2022/06/18 08:16:27;;;;;;;11.90;6.00;;;26.30;91.90;;;;;;5017978;28;20022;-87
2022/06/18 08:18:53;;;;;;;11.70;5.90;;;26.20;92.00;;;;;;5016853;28;20021;-87
2022/06/18 08:21:28;;;;;;;13.13;6.20;;;26.30;92.10;;;;;;5016686;28;20043;-87
2022/06/18 08:23:59;;;;;;;13.77;5.55;;;26.40;91.70;;;;;;5016572;28;20497;-87
2022/06/18 08:26:25;;;;;;;9.70;5.57;;;26.50;91.90;;;;;;5016542;28;20036;-87
2022/06/18 08:28:51;;;;;;;12.32;5.90;;;26.50;91.60;;;;;;5016409;28;20124;-87
2022/06/18 08:31:17;;;;;;;16.25;7.07;;;26.60;91.50;;;;;;5016459;28;20478;-87
2022/06/18 08:33:43;;;;;;;12.88;5.55;;;26.60;91.30;;;;;;5016479;28;20120;-87
2022/06/18 08:36:14;;;;;;;13.77;6.05;;;26.70;91.30;;;;;;5012933;28;20038;-87
2022/06/18 08:38:43;;;;;;;13.50;6.15;;;26.80;91.20;;;;;;5029524;28;20053;-87
2022/06/18 08:41:38;;;;;;;16.23;5.93;;;26.70;91.20;;;;;;5013159;28;20034;-86
2022/06/18 08:44:41;;;;;;;12.60;5.00;;;26.60;91.30;;;;;;5012976;28;20117;-87
2022/06/18 08:47:32;;;;;;;13.10;5.15;;;26.60;91.60;;;;;;5029462;28;20026;-86
2022/06/18 08:50:06;;;;;;;13.48;4.95;;;26.70;91.30;;;;;;5013940;28;20037;-86
2022/06/18 08:52:52;;;;;;;9.98;5.07;;;26.80;91.70;;;;;;5014051;28;20029;-87
2022/06/18 08:55:27;;;;;;;12.15;4.78;;;27.00;91.30;;;;;;5029470;28;20100;-86
2022/06/18 08:58:11;;;;;;;8.18;4.18;;;27.10;91.00;;;;;;5014365;28;20054;-87
2022/06/18 09:00:51;;;;;;;10.55;5.15;;;27.30;90.80;;;;;;5029214;28;20383;-86
2022/06/18 09:03:41;;;;;;;9.60;5.65;;;27.50;90.80;;;;;;5012752;28;20029;-86
2022/06/18 09:06:13;;;;;;;9.85;5.22;;;27.50;90.30;;;;;;5028788;28;20022;-87
2022/06/18 09:08:58;;;;;;;14.05;6.32;;;27.60;90.30;;;;;;5029105;28;20520;-87
2022/06/18 09:11:43;;;;;;;18.48;6.28;;;27.70;90.30;;;;;;5028855;28;20081;-86
2022/06/18 09:14:17;;;;;;;15.88;5.30;;;27.70;90.60;;;;;;5012766;28;20490;-87
2022/06/18 09:16:49;;;;;;;8.98;4.75;;;27.70;90.50;;;;;;5012546;28;20068;-86
2022/06/18 09:19:19;;;;;;;13.38;5.35;;;27.70;90.70;;;;;;5013376;28;20117;-87
2022/06/18 09:22:00;;;;;;;14.85;7.80;;;27.80;90.90;;;;;;5013907;28;20164;-87
2022/06/18 09:24:44;;;;;;;11.83;5.57;;;28.00;90.00;;;;;;5014082;28;20028;-86
2022/06/18 09:27:30;;;;;;;11.00;6.05;;;27.90;89.70;;;;;;5012808;28;20132;-87
2022/06/18 09:30:06;;;;;;;9.88;6.13;;;28.00;89.70;;;;;;5013131;28;20042;-87
2022/06/18 09:32:32;;;;;;;10.05;5.90;;;28.00;89.40;;;;;;5012712;28;20034;-87
2022/06/18 09:35:19;;;;;;;11.35;5.65;;;28.10;89.10;;;;;;5029160;28;20494;-87
2022/06/18 09:38:09;;;;;;;10.50;5.10;;;28.20;88.80;;;;;;5029373;28;20053;-87
2022/06/18 09:40:38;;;;;;;8.82;3.97;;;28.40;89.00;;;;;;5012796;28;20612;-87
2022/06/18 09:43:33;;;;;;;10.02;5.43;;;28.50;88.40;;;;;;5012489;28;20026;-87
2022/06/18 09:46:02;;;;;;;14.70;5.40;;;28.60;87.40;;;;;;4987274;28;20065;-87
2022/06/18 09:48:28;;;;;;;13.07;5.65;;;28.60;86.90;;;;;;5013397;28;20030;-87
2022/06/18 09:50:57;;;;;;;12.43;4.75;;;28.60;86.70;;;;;;5013603;28;20367;-87
2022/06/18 09:53:33;;;;;;;8.55;4.32;;;28.60;87.10;;;;;;5012785;28;20022;-85
2022/06/18 09:56:15;;;;;;;8.20;4.05;;;28.70;86.20;;;;;;5012484;28;20030;-86
2022/06/18 09:58:52;;;;;;;15.38;5.50;;;28.90;85.80;;;;;;5012334;28;20505;-86
2022/06/18 10:01:21;;;;;;;8.13;4.60;;;28.90;85.60;;;;;;5013258;28;20034;-86
2022/06/18 10:09:35;;;;;;;8.18;3.30;;;28.90;85.00;;;;;;5013125;28;20577;-86
2022/06/18 10:12:12;;;;;;;11.52;4.38;;;28.90;85.20;;;;;;5028369;28;20026;-83
2022/06/18 10:14:37;;;;;;;6.30;3.13;;;29.00;84.50;;;;;;5028379;28;20018;-86
2022/06/18 10:17:53;;;;;;;10.27;3.55;;;29.10;85.00;;;;;;5013751;28;20069;-86
2022/06/18 10:20:33;;;;;;;10.10;3.25;;;29.30;83.80;;;;;;4998905;28;20103;-87
2022/06/18 10:23:18;;;;;;;10.07;3.63;;;29.40;82.40;;;;;;5015220;28;20033;-86
2022/06/18 10:25:52;;;;;;;13.60;3.72;;;29.30;81.40;;;;;;5015138;28;20176;-86
2022/06/18 10:28:29;;;;;;;11.48;3.10;;;29.30;81.20;;;;;;5016409;28;20120;-86
2022/06/18 10:31:12;;;;;;;9.60;3.00;;;29.40;81.00;;;;;;5016512;28;20030;-85
2022/06/18 10:34:04;;;;;;;7.25;2.80;;;29.50;80.50;;;;;;5032123;28;20030;-85
2022/06/18 10:36:56;;;;;;;7.55;2.30;;;29.70;79.30;;;;;;5015570;28;20591;-85
2022/06/18 10:40:04;;;;;;;13.63;3.08;;;29.80;78.80;;;;;;5016077;28;20029;-85
2022/06/18 10:42:58;;;;;;;8.60;2.85;;;29.90;78.50;;;;;;5015861;28;20033;-85
2022/06/18 10:45:40;;;;;;;7.03;2.53;;;29.90;77.40;;;;;;5014935;28;20033;-86
2022/06/18 10:48:13;;;;;;;10.05;3.95;;;30.00;77.80;;;;;;5015983;28;20497;-86
2022/06/18 10:50:46;;;;;;;7.97;3.03;;;30.00;76.40;;;;;;5015013;28;20076;-87
2022/06/18 10:53:15;;;;;;;8.48;2.47;;;30.00;76.70;;;;;;5015953;28;20037;-87
2022/06/18 10:55:41;;;;;;;14.10;3.45;;;30.10;77.10;;;;;;5014775;28;20064;-86
2022/06/18 10:58:11;;;;;;;8.18;2.40;;;30.10;76.30;;;;;;5014458;28;20538;-84
2022/06/18 11:00:37;;;;;;;8.32;2.63;;;30.10;76.50;;;;;;5031222;28;20018;-86
2022/06/18 11:03:15;;;;;;;8.30;2.80;;;30.20;76.40;;;;;;5015594;28;20033;-87
2022/06/18 11:05:45;;;;;;;8.90;2.70;;;30.20;75.40;;;;;;5015792;28;20034;-86
2022/06/18 11:08:40;;;;;;;11.57;2.92;;;30.40;75.30;;;;;;5014153;28;20026;-84
2022/06/18 11:11:08;;;;;;;11.48;2.53;;;30.50;74.70;;;;;;5013983;28;20080;-84
2022/06/18 11:13:35;;;;;;;7.28;2.92;;;30.50;75.00;;;;;;5015570;28;20026;-84
2022/06/18 11:16:20;;;;;;;6.57;1.92;;;30.60;73.90;;;;;;5031168;28;20512;-84
2022/06/18 11:18:56;;;;;;;8.88;1.95;;;30.60;73.00;;;;;;5015569;28;20108;-84
2022/06/18 11:21:28;;;;;;;6.90;1.90;;;30.70;72.80;;;;;;5015097;28;20434;-82
2022/06/18 11:24:01;;;;;;;8.73;2.10;;;30.70;71.50;;;;;;5029986;28;20053;-83
2022/06/18 11:26:28;;;;;;;9.93;2.28;;;30.70;71.60;;;;;;5015161;28;20097;-84
2022/06/18 11:29:01;;;;;;;9.40;1.83;;;30.90;71.20;;;;;;5030085;28;20041;-85
2022/06/18 11:31:44;;;;;;;9.23;1.88;;;31.00;71.10;;;;;;5013888;28;20018;-84
2022/06/18 11:34:18;;;;;;;8.82;2.10;;;31.10;70.10;;;;;;5014046;28;20034;-84
2022/06/18 11:36:50;;;;;;;8.85;2.13;;;31.10;69.70;;;;;;5030156;28;20445;-84
2022/06/18 11:39:37;;;;;;;8.38;1.92;;;31.20;68.30;;;;;;5013990;28;20022;-84
2022/06/18 11:42:20;;;;;;;7.82;2.00;;;31.20;68.50;;;;;;5013476;28;20058;-84
2022/06/18 11:45:30;;;;;;;11.40;2.53;;;31.20;68.10;;;;;;5013607;28;20064;-84
2022/06/18 11:48:21;;;;;;;8.45;2.65;;;31.20;67.40;;;;;;4976886;28;20029;-84
2022/06/18 11:51:09;;;;;;;10.37;1.87;;;31.00;67.50;;;;;;4993545;28;20058;-84
2022/06/18 11:53:40;;;;;;;9.77;2.25;;;30.90;68.30;;;;;;5007059;28;20786;-84
2022/06/18 11:56:15;;;;;;;;;;;30.80;68.40;;;;;;5014217;28;20390;-84
2022/06/18 11:59:02;;;;;;;7.80;2.15;;;30.70;68.70;;;;;;5014248;28;19911;-83
2022/06/18 12:01:44;;;;;;;11.07;2.15;;;30.80;69.20;;;;;;5014726;28;20014;-84
2022/06/18 12:04:52;;;;;;;7.30;1.73;;;30.80;68.60;;;;;;5015054;28;20022;-84
2022/06/18 12:07:35;;;;;;;8.48;1.90;;;30.90;68.70;;;;;;5002138;28;20034;-84
2022/06/18 12:10:02;;;;;;;6.88;2.05;;;30.70;68.40;;;;;;5014476;28;20518;-84
2022/06/18 12:12:43;;;;;;;10.43;2.03;;;30.70;68.50;;;;;;5014319;28;20470;-84
2022/06/18 12:15:28;;;;;;;8.18;2.28;;;31.00;68.30;;;;;;5029812;28;20030;-84
2022/06/18 12:18:12;;;;;;;7.82;2.17;;;31.10;67.60;;;;;;5029646;28;20049;-83
2022/06/18 12:21:03;;;;;;;6.57;1.92;;;31.20;66.70;;;;;;5014156;28;20026;-84
2022/06/18 12:23:48;;;;;;;7.15;1.83;;;31.20;66.90;;;;;;5029438;28;20159;-83
2022/06/18 12:26:31;;;;;;;7.90;2.65;;;31.20;67.00;;;;;;5012901;28;20079;-86
2022/06/18 12:29:06;;;;;;;10.02;2.58;;;31.20;67.80;;;;;;5029437;28;20092;-86
2022/06/18 12:31:45;;;;;;;8.57;2.28;;;31.30;67.60;;;;;;5029247;28;20026;-83
2022/06/18 12:34:22;;;;;;;9.23;2.15;;;31.40;67.50;;;;;;5014012;28;20022;-84
2022/06/18 12:37:08;;;;;;;14.90;2.58;;;31.50;66.30;;;;;;5028988;28;20184;-84
2022/06/18 12:40:00;;;;;;;9.07;2.15;;;31.50;66.00;;;;;;5013102;28;20494;-86
2022/06/18 12:42:36;;;;;;;10.02;2.28;;;31.50;66.00;;;;;;5029248;28;20029;-86
2022/06/18 12:45:27;;;;;;;9.95;2.63;;;31.50;66.10;;;;;;5013726;28;20030;-86
2022/06/18 12:48:03;;;;;;;8.70;1.77;;;31.80;66.10;;;;;;5029018;28;20026;-86
2022/06/18 12:50:48;;;;;;;8.75;2.28;;;31.90;65.70;;;;;;5028990;28;20037;-86
2022/06/18 12:53:32;;;;;;;6.50;2.33;;;31.90;64.90;;;;;;5012309;28;20026;-84
2022/06/18 12:56:22;;;;;;;9.52;1.98;;;31.80;65.50;;;;;;5028952;28;20363;-83
2022/06/18 12:59:12;;;;;;;14.60;2.85;;;32.00;65.30;;;;;;5013641;28;20032;-84
2022/06/18 13:02:05;;;;;;;11.80;2.85;;;32.10;65.20;;;;;;5013606;28;20029;-83
2022/06/18 13:04:42;;;;;;;8.50;1.70;;;32.00;65.50;;;;;;5028204;28;20022;-84
2022/06/18 13:07:20;;;;;;;5.72;2.50;;;32.10;65.60;;;;;;5013676;28;20068;-84
2022/06/18 13:10:23;;;;;;;12.48;2.55;;;32.20;64.90;;;;;;5012167;28;20044;-84
2022/06/18 13:12:57;;;;;;;12.07;3.08;;;32.30;64.80;;;;;;5006978;28;20041;-83
2022/06/18 13:15:46;;;;;;;10.30;2.67;;;32.30;64.50;;;;;;5028755;28;20394;-84
2022/06/18 13:18:22;;;;;;;10.73;2.33;;;32.30;64.70;;;;;;5012149;28;20029;-83
2022/06/18 13:20:54;;;;;;;12.20;2.42;;;32.20;64.20;;;;;;5028775;28;20022;-84
2022/06/18 13:29:16;;;;;;;13.35;2.72;;;32.20;64.00;;;;;;5013570;28;20104;-84